Time;durP1;ratioP1;P1;durP2;ratioP2;P2;SDS_P1;SDS_P2;PMS_P1;PMS_P2;Temp;Humidity;BMP_temperature;BMP_pressure;BME280_temperature;BME280_humidity;BME280_pressure;Samples;Min_cycle;Max_cycle;Signal;HPM_P1;HPM_P2
2023/06/02 03:01:58;;;;;;;9.55;2.20;;;10.70;99.90;;;;;;5284336;23;20097;-74
2023/06/02 03:04:24;;;;;;;14.57;2.50;;;10.60;99.90;;;;;;4993554;28;20050;-74
2023/06/02 03:06:52;;;;;;;16.00;3.35;;;10.60;99.90;;;;;;4993771;28;20122;-74
2023/06/02 03:09:18;;;;;;;14.60;2.80;;;10.70;99.90;;;;;;4993370;28;20053;-74
2023/06/02 03:11:44;;;;;;;13.35;2.42;;;10.70;99.90;;;;;;4993431;28;20038;-76
2023/06/02 03:14:10;;;;;;;15.77;2.70;;;10.70;99.90;;;;;;4993412;28;20046;-75
2023/06/02 03:16:39;;;;;;;18.45;3.25;;;10.60;99.90;;;;;;4993173;28;20045;-74
2023/06/02 03:19:05;;;;;;;17.73;2.70;;;10.60;99.90;;;;;;4993514;28;20045;-74
2023/06/02 03:21:41;;;;;;;16.83;2.75;;;10.60;99.90;;;;;;4993293;28;20115;-75
2023/06/02 03:24:17;;;;;;;14.15;2.75;;;10.60;99.90;;;;;;4993003;28;20073;-74
2023/06/02 03:26:44;;;;;;;16.20;2.83;;;10.60;99.90;;;;;;4993260;28;20466;-74
2023/06/02 03:29:11;;;;;;;15.88;3.33;;;10.60;99.90;;;;;;4977067;28;20397;-75
2023/06/02 03:31:38;;;;;;;14.90;2.95;;;10.60;99.90;;;;;;4992909;28;20046;-75
2023/06/02 03:34:04;;;;;;;17.38;2.90;;;10.60;99.90;;;;;;4994728;28;20099;-73
2023/06/02 03:36:35;;;;;;;19.63;2.80;;;10.70;99.90;;;;;;4994199;28;20073;-73
2023/06/02 03:39:03;;;;;;;13.02;2.55;;;10.70;99.90;;;;;;4992942;28;20121;-74
2023/06/02 03:41:29;;;;;;;15.77;2.75;;;10.70;99.90;;;;;;4994962;28;20113;-74
2023/06/02 03:43:55;;;;;;;15.50;3.20;;;10.70;99.90;;;;;;4978572;28;20053;-74
2023/06/02 03:46:21;;;;;;;17.33;2.85;;;10.70;99.90;;;;;;4994331;28;20474;-74
2023/06/02 03:48:46;;;;;;;17.95;3.50;;;10.70;99.90;;;;;;4976782;28;20044;-73
2023/06/02 03:51:12;;;;;;;13.75;3.08;;;10.70;99.90;;;;;;4992760;28;20046;-75
2023/06/02 03:53:38;;;;;;;18.00;3.22;;;10.70;99.90;;;;;;4994247;28;20038;-74
2023/06/02 03:56:03;;;;;;;18.00;2.85;;;10.70;99.90;;;;;;4993923;28;20065;-74
2023/06/02 03:58:29;;;;;;;22.92;3.42;;;10.70;99.90;;;;;;4992850;28;20431;-75
2023/06/02 04:00:55;;;;;;;18.75;3.38;;;10.80;99.90;;;;;;4992356;28;20050;-74
2023/06/02 04:03:22;;;;;;;22.70;3.30;;;10.70;99.90;;;;;;4992865;28;20034;-74
2023/06/02 04:05:48;;;;;;;14.90;2.90;;;10.70;99.90;;;;;;4992474;28;20118;-74
2023/06/02 04:08:16;;;;;;;16.02;3.15;;;10.70;99.90;;;;;;4993997;28;20413;-75
2023/06/02 04:10:45;;;;;;;21.80;3.22;;;10.70;99.90;;;;;;4976194;28;20558;-75
2023/06/02 04:13:10;;;;;;;19.20;3.55;;;10.70;99.90;;;;;;4993750;28;20050;-75
2023/06/02 04:15:36;;;;;;;12.52;2.83;;;10.70;99.90;;;;;;4992565;28;20038;-74
2023/06/02 04:18:03;;;;;;;14.88;3.20;;;10.70;99.90;;;;;;4992436;28;20506;-74
2023/06/02 04:20:29;;;;;;;16.90;3.13;;;10.70;99.90;;;;;;4992308;28;20070;-75
2023/06/02 04:22:54;;;;;;;19.23;3.10;;;10.70;99.90;;;;;;4993619;28;20147;-75
2023/06/02 04:25:20;;;;;;;16.27;2.95;;;10.60;99.90;;;;;;4993882;28;20117;-75
2023/06/02 04:27:46;;;;;;;17.60;3.13;;;10.70;99.90;;;;;;4993754;28;20038;-74
2023/06/02 04:30:11;;;;;;;17.15;2.85;;;10.70;99.90;;;;;;4992104;28;20125;-74
2023/06/02 04:32:37;;;;;;;14.77;3.25;;;10.70;99.90;;;;;;4993814;28;20073;-73
2023/06/02 04:35:03;;;;;;;13.88;3.05;;;10.70;99.90;;;;;;4992147;28;20157;-73
2023/06/02 04:37:29;;;;;;;18.58;3.17;;;10.80;99.90;;;;;;4993720;28;20034;-74
2023/06/02 04:39:55;;;;;;;18.48;3.05;;;10.80;99.90;;;;;;4993903;28;20545;-74
2023/06/02 04:42:21;;;;;;;12.82;2.50;;;10.80;99.90;;;;;;4992048;28;20050;-74
2023/06/02 04:44:48;;;;;;;16.52;2.83;;;10.80;99.90;;;;;;4992088;28;20038;-73
2023/06/02 04:47:14;;;;;;;27.05;4.07;;;10.80;99.90;;;;;;4993280;28;20053;-75
2023/06/02 04:49:40;;;;;;;12.73;2.92;;;10.80;99.90;;;;;;4992034;28;20042;-73
2023/06/02 04:52:09;;;;;;;12.90;2.90;;;10.80;99.90;;;;;;4994104;28;20093;-73
2023/06/02 04:54:35;;;;;;;21.55;2.95;;;10.90;99.90;;;;;;4995814;28;20038;-73
2023/06/02 04:57:05;;;;;;;17.35;2.90;;;10.90;99.90;;;;;;4995751;28;20073;-74
2023/06/02 04:59:35;;;;;;;18.65;3.17;;;10.90;99.90;;;;;;4996971;28;20401;-74
2023/06/02 05:02:01;;;;;;;18.25;3.53;;;10.90;99.90;;;;;;4996742;28;20516;-74
2023/06/02 05:04:26;;;;;;;18.17;2.88;;;10.90;99.90;;;;;;4996821;28;20035;-73
2023/06/02 05:06:53;;;;;;;20.67;2.92;;;11.00;99.90;;;;;;4995982;28;20082;-73
2023/06/02 05:09:19;;;;;;;17.95;2.70;;;11.00;99.90;;;;;;4995603;28;20132;-75
2023/06/02 05:11:45;;;;;;;21.55;2.83;;;11.00;99.90;;;;;;4996516;28;20044;-74
2023/06/02 05:14:11;;;;;;;17.00;2.60;;;11.00;99.90;;;;;;4995449;28;20034;-73
2023/06/02 05:16:36;;;;;;;13.70;2.90;;;11.00;99.90;;;;;;4995339;28;20050;-74
2023/06/02 05:19:05;;;;;;;16.20;2.85;;;11.10;99.90;;;;;;4995473;28;20038;-73
2023/06/02 05:21:31;;;;;;;18.58;2.85;;;11.10;99.90;;;;;;4996545;28;20512;-73
2023/06/02 05:23:58;;;;;;;19.40;3.25;;;11.10;99.90;;;;;;4996117;28;20089;-74
2023/06/02 05:26:24;;;;;;;20.40;3.67;;;11.10;99.90;;;;;;4995133;28;20058;-75
2023/06/02 05:28:50;;;;;;;16.48;3.17;;;11.10;99.90;;;;;;4995188;28;20073;-74
2023/06/02 05:31:17;;;;;;;21.77;3.08;;;11.10;99.90;;;;;;4996675;28;20039;-73
2023/06/02 05:33:42;;;;;;;27.75;3.30;;;11.20;99.90;;;;;;4996542;28;20042;-75
2023/06/02 05:36:08;;;;;;;21.02;3.28;;;11.20;99.90;;;;;;4995149;28;20046;-74
2023/06/02 05:38:34;;;;;;;23.35;3.78;;;11.20;99.90;;;;;;4996681;28;20482;-75
2023/06/02 05:41:00;;;;;;;21.75;3.53;;;11.20;99.90;;;;;;4996309;28;20146;-74
2023/06/02 05:43:29;;;;;;;18.40;3.10;;;11.20;99.90;;;;;;4995132;28;20125;-74
2023/06/02 05:45:54;;;;;;;21.60;3.38;;;11.20;99.90;;;;;;4995238;28;20064;-75
2023/06/02 05:48:20;;;;;;;22.58;3.50;;;11.30;99.90;;;;;;4995082;28;20042;-75
2023/06/02 05:50:46;;;;;;;16.00;2.78;;;11.30;99.90;;;;;;4994868;28;20038;-75
2023/06/02 05:53:12;;;;;;;20.85;3.30;;;11.30;99.90;;;;;;4994939;28;20053;-74
2023/06/02 05:55:38;;;;;;;22.50;3.70;;;11.30;99.90;;;;;;4994921;28;20054;-74
2023/06/02 05:58:03;;;;;;;16.70;2.97;;;11.40;99.90;;;;;;4995114;28;20050;-74
2023/06/02 06:00:29;;;;;;;20.58;3.58;;;11.40;99.90;;;;;;4994642;28;20401;-74
2023/06/02 06:02:55;;;;;;;17.70;3.22;;;11.50;99.90;;;;;;4994277;28;20042;-76
2023/06/02 06:05:20;;;;;;;21.10;3.40;;;11.50;99.90;;;;;;4996135;28;20092;-76
2023/06/02 06:07:46;;;;;;;24.42;5.05;;;11.50;99.90;;;;;;4995890;28;20110;-74
2023/06/02 06:10:12;;;;;;;21.83;3.75;;;11.50;99.90;;;;;;4994627;28;20482;-75
2023/06/02 06:12:37;;;;;;;16.52;3.30;;;11.60;99.90;;;;;;4996005;28;20030;-76
2023/06/02 06:15:04;;;;;;;19.15;2.80;;;11.60;99.90;;;;;;4994846;28;20052;-78
2023/06/02 06:17:29;;;;;;;22.65;4.25;;;11.70;99.90;;;;;;4993378;28;20125;-74
2023/06/02 06:19:55;;;;;;;13.95;3.15;;;11.70;99.90;;;;;;4994324;28;20081;-74
2023/06/02 06:22:21;;;;;;;20.38;3.53;;;11.70;99.90;;;;;;4994360;28;20044;-74
2023/06/02 06:24:46;;;;;;;22.35;4.05;;;11.70;99.90;;;;;;4994351;28;20095;-75
2023/06/02 06:27:12;;;;;;;18.50;3.55;;;11.80;99.90;;;;;;4994350;28;20042;-74
2023/06/02 06:29:37;;;;;;;23.42;4.07;;;11.90;99.90;;;;;;4994164;28;20375;-74
2023/06/02 06:32:06;;;;;;;17.92;3.40;;;12.00;99.90;;;;;;4994068;28;20069;-75
2023/06/02 06:34:32;;;;;;;19.48;3.90;;;12.00;99.90;;;;;;4994298;28;20046;-75
2023/06/02 06:36:57;;;;;;;21.02;4.38;;;12.00;99.90;;;;;;4995225;28;20185;-74
2023/06/02 06:39:23;;;;;;;14.43;3.70;;;12.10;99.90;;;;;;4978009;28;20046;-76
2023/06/02 06:41:48;;;;;;;19.08;3.72;;;12.10;99.90;;;;;;4993807;28;20077;-73
2023/06/02 06:44:14;;;;;;;15.25;3.50;;;12.10;99.90;;;;;;4995132;28;20113;-74
2023/06/02 06:46:40;;;;;;;22.23;3.40;;;12.10;99.90;;;;;;4993821;28;20049;-75
2023/06/02 06:49:06;;;;;;;28.17;3.78;;;12.10;99.90;;;;;;4995042;28;20041;-74
2023/06/02 06:51:32;;;;;;;24.33;4.95;;;12.10;99.90;;;;;;4978056;28;20049;-74
2023/06/02 06:53:58;;;;;;;21.00;4.22;;;12.20;99.90;;;;;;4993701;28;20045;-74
2023/06/02 06:56:25;;;;;;;31.50;5.18;;;12.30;99.90;;;;;;4995375;28;20397;-74
2023/06/02 06:58:51;;;;;;;18.77;4.05;;;12.30;99.90;;;;;;4994880;28;20510;-74
2023/06/02 07:01:17;;;;;;;21.88;4.40;;;12.30;99.90;;;;;;4993381;28;20081;-73
2023/06/02 07:03:42;;;;;;;21.13;3.80;;;12.40;99.90;;;;;;4993493;28;20097;-75
2023/06/02 07:06:08;;;;;;;24.13;4.03;;;12.40;99.90;;;;;;4993535;28;20046;-74
2023/06/02 07:08:35;;;;;;;21.27;3.88;;;12.50;99.90;;;;;;4993780;28;20046;-74
2023/06/02 07:11:01;;;;;;;19.52;4.03;;;12.50;99.90;;;;;;4993605;28;20086;-74
2023/06/02 07:13:27;;;;;;;25.67;4.78;;;12.50;99.90;;;;;;4977347;28;20169;-74
2023/06/02 07:15:53;;;;;;;26.30;4.88;;;12.50;99.90;;;;;;4992366;28;20552;-74
2023/06/02 07:18:18;;;;;;;22.92;5.07;;;12.60;99.90;;;;;;4994639;28;20043;-74
2023/06/02 07:20:44;;;;;;;26.48;4.43;;;12.60;99.90;;;;;;4993326;28;20042;-74
2023/06/02 07:23:10;;;;;;;24.00;4.03;;;12.60;99.90;;;;;;4977003;28;20046;-74
2023/06/02 07:25:36;;;;;;;21.00;3.95;;;12.70;99.90;;;;;;4993114;28;20042;-73
2023/06/02 07:28:05;;;;;;;22.45;4.10;;;12.80;99.90;;;;;;4994920;28;20113;-74
2023/06/02 07:30:35;;;;;;;21.35;4.28;;;12.80;99.90;;;;;;4994509;28;20034;-77
2023/06/02 07:33:00;;;;;;;20.52;4.20;;;12.90;99.90;;;;;;4977454;28;20034;-74
2023/06/02 07:35:26;;;;;;;24.92;4.53;;;12.90;99.90;;;;;;4994883;28;20485;-77
2023/06/02 07:37:53;;;;;;;24.35;5.53;;;13.00;99.90;;;;;;4993470;28;20049;-75
2023/06/02 07:40:19;;;;;;;22.38;4.28;;;13.00;99.90;;;;;;4993045;28;20043;-71
2023/06/02 07:42:46;;;;;;;21.25;4.53;;;13.10;99.90;;;;;;4992820;28;20063;-75
2023/06/02 07:45:11;;;;;;;21.98;4.07;;;13.20;99.90;;;;;;4994008;28;20065;-74
2023/06/02 07:47:37;;;;;;;23.88;5.07;;;13.30;99.90;;;;;;4992752;28;20042;-74
2023/06/02 07:50:03;;;;;;;22.65;4.68;;;13.40;99.90;;;;;;4994056;28;20141;-74
2023/06/02 07:52:29;;;;;;;24.15;4.90;;;13.50;99.90;;;;;;4992912;28;20046;-75
2023/06/02 07:54:55;;;;;;;18.92;4.15;;;13.50;99.90;;;;;;4992766;28;20498;-77
2023/06/02 07:57:20;;;;;;;18.60;4.00;;;13.60;99.90;;;;;;4992844;28;20050;-76
2023/06/02 07:59:46;;;;;;;26.75;4.65;;;13.70;99.90;;;;;;4994487;28;20139;-75
2023/06/02 08:02:12;;;;;;;32.33;5.55;;;13.80;99.90;;;;;;4992483;28;20049;-76
2023/06/02 08:04:37;;;;;;;28.08;5.30;;;13.90;99.90;;;;;;4992841;28;20396;-75
2023/06/02 08:07:04;;;;;;;21.00;5.22;;;13.90;99.90;;;;;;4993224;28;20057;-75
2023/06/02 08:09:29;;;;;;;26.25;5.45;;;14.00;99.90;;;;;;4992970;28;20046;-77
2023/06/02 08:11:55;;;;;;;22.52;4.25;;;14.10;99.90;;;;;;4992633;28;20042;-75
2023/06/02 08:14:20;;;;;;;20.20;4.47;;;14.20;99.90;;;;;;4992729;28;20042;-74
2023/06/02 08:16:46;;;;;;;17.75;4.15;;;14.30;99.90;;;;;;4993730;28;20034;-75
2023/06/02 08:19:13;;;;;;;30.17;5.10;;;14.30;99.90;;;;;;4976295;28;20038;-75
2023/06/02 08:21:39;;;;;;;23.27;4.82;;;14.50;99.90;;;;;;4992739;28;20081;-74
2023/06/02 08:24:05;;;;;;;23.50;4.65;;;14.50;99.90;;;;;;4992528;28;20129;-75
2023/06/02 08:26:32;;;;;;;20.70;4.22;;;14.60;99.90;;;;;;4993998;28;20125;-75
2023/06/02 08:28:59;;;;;;;25.58;5.05;;;14.70;99.90;;;;;;4996652;28;20050;-75
2023/06/02 08:31:25;;;;;;;19.30;4.57;;;14.80;99.90;;;;;;4996356;28;20121;-74
2023/06/02 08:33:54;;;;;;;21.58;5.03;;;15.00;99.90;;;;;;4997581;28;20458;-74
2023/06/02 08:36:20;;;;;;;24.90;5.00;;;15.10;99.90;;;;;;4997887;28;20050;-75
2023/06/02 08:38:51;;;;;;;21.67;4.70;;;15.20;99.90;;;;;;4996225;28;20053;-75
2023/06/02 08:41:17;;;;;;;21.60;5.10;;;15.20;99.90;;;;;;4979989;28;20125;-75
2023/06/02 08:43:43;;;;;;;21.33;4.20;;;15.20;99.90;;;;;;4996412;28;20073;-74
2023/06/02 08:46:15;;;;;;;24.17;5.07;;;15.20;99.90;;;;;;4996033;28;20042;-74
2023/06/02 08:48:45;;;;;;;24.80;4.32;;;15.20;99.90;;;;;;4996091;28;20050;-73
2023/06/02 08:51:15;;;;;;;19.27;4.70;;;15.10;99.90;;;;;;4995937;28;20050;-74
2023/06/02 08:53:41;;;;;;;22.52;4.38;;;15.20;99.90;;;;;;4997239;28;20057;-73
2023/06/02 08:56:07;;;;;;;21.02;4.20;;;15.40;99.90;;;;;;4995936;28;20112;-74
2023/06/02 08:58:34;;;;;;;16.98;3.97;;;15.50;99.90;;;;;;4996125;28;20489;-74
2023/06/02 09:01:03;;;;;;;17.48;4.20;;;15.60;99.90;;;;;;4995556;28;20491;-75
2023/06/02 09:03:28;;;;;;;19.25;4.57;;;15.60;99.90;;;;;;4995705;28;20050;-75
2023/06/02 09:05:54;;;;;;;22.70;4.30;;;15.70;99.90;;;;;;4996549;28;20382;-74
2023/06/02 09:08:21;;;;;;;21.58;3.97;;;15.80;99.90;;;;;;4996982;28;20509;-74
2023/06/02 09:10:48;;;;;;;12.25;3.22;;;16.00;99.90;;;;;;4996227;28;20054;-74
2023/06/02 09:13:36;;;;;;;18.65;3.67;;;16.10;99.90;;;;;;4995778;28;20122;-76
2023/06/02 09:16:03;;;;;;;12.43;3.38;;;16.20;99.90;;;;;;4995894;28;20050;-75
2023/06/02 09:18:29;;;;;;;14.38;3.00;;;16.40;99.90;;;;;;4995683;28;20050;-76
2023/06/02 09:20:58;;;;;;;14.07;3.10;;;16.60;99.90;;;;;;4995689;28;20385;-74
2023/06/02 09:23:41;;;;;;;11.82;2.70;;;16.90;99.90;;;;;;4995498;28;20042;-74
2023/06/02 09:26:49;;;;;;;13.82;2.72;;;17.20;99.90;;;;;;4995424;28;20050;-76
2023/06/02 09:29:15;;;;;;;7.97;2.70;;;17.40;99.90;;;;;;4976837;28;20517;-74
2023/06/02 09:31:52;;;;;;;10.20;2.63;;;17.50;99.90;;;;;;4996579;28;20109;-75
2023/06/02 09:34:19;;;;;;;11.13;2.80;;;17.70;99.90;;;;;;4995628;28;20074;-75
2023/06/02 09:36:50;;;;;;;16.83;2.47;;;17.90;99.90;;;;;;4995137;28;20121;-76
2023/06/02 09:39:44;;;;;;;17.00;3.00;;;18.10;99.90;;;;;;4995453;28;20043;-75
2023/06/02 09:42:14;;;;;;;12.50;2.50;;;18.20;99.90;;;;;;4995273;28;20030;-75
2023/06/02 09:44:41;;;;;;;11.52;2.53;;;18.30;99.90;;;;;;4995139;28;20057;-73
2023/06/02 09:47:26;;;;;;;14.88;3.05;;;18.30;99.90;;;;;;4995097;28;20172;-74
2023/06/02 09:49:52;;;;;;;16.77;2.80;;;18.10;99.90;;;;;;4994871;28;20080;-75
2023/06/02 09:52:18;;;;;;;9.45;2.10;;;18.20;99.90;;;;;;4994807;28;20129;-74
2023/06/02 09:54:45;;;;;;;11.45;2.35;;;18.40;99.90;;;;;;4994905;28;20095;-76
2023/06/02 09:57:12;;;;;;;17.80;3.08;;;18.60;99.90;;;;;;4994756;28;20057;-73
2023/06/02 09:59:39;;;;;;;9.60;2.42;;;18.70;99.90;;;;;;4996305;28;20113;-75
2023/06/02 10:02:10;;;;;;;12.43;2.60;;;18.80;99.90;;;;;;4994466;28;20039;-76
2023/06/02 10:04:36;;;;;;;9.70;2.40;;;18.70;99.90;;;;;;4994939;28;20050;-75
2023/06/02 10:07:13;;;;;;;6.78;1.83;;;18.50;99.90;;;;;;4995862;28;20405;-75
2023/06/02 10:10:08;;;;;;;12.98;2.30;;;18.30;99.90;;;;;;4995508;28;20126;-75
2023/06/02 10:13:11;;;;;;;7.72;2.38;;;18.40;99.90;;;;;;4994242;28;20498;-75
2023/06/02 10:16:05;;;;;;;10.25;2.40;;;18.80;99.90;;;;;;4977972;28;20529;-75
2023/06/02 10:18:33;;;;;;;7.50;2.25;;;19.00;99.90;;;;;;4994544;28;20054;-74
2023/06/02 10:21:22;;;;;;;8.07;2.10;;;18.90;99.90;;;;;;4994617;28;20438;-75
2023/06/02 10:24:12;;;;;;;9.82;1.98;;;18.70;99.90;;;;;;4984198;28;20133;-78
2023/06/02 10:27:12;;;;;;;6.93;1.50;;;18.70;99.90;;;;;;4994647;28;20089;-76
2023/06/02 10:29:38;;;;;;;5.57;1.95;;;18.70;99.90;;;;;;4995871;28;20046;-76
2023/06/02 10:32:24;;;;;;;6.43;1.83;;;18.50;99.90;;;;;;4995679;28;20042;-74
2023/06/02 10:34:51;;;;;;;8.60;1.70;;;18.40;99.90;;;;;;5001640;28;20209;-76
2023/06/02 10:37:19;;;;;;;9.77;1.90;;;18.40;99.90;;;;;;4994104;28;20394;-75
2023/06/02 10:39:45;;;;;;;6.05;1.30;;;18.40;99.90;;;;;;4993931;28;20129;-76
2023/06/02 10:42:12;;;;;;;6.00;1.60;;;18.40;99.90;;;;;;4995361;28;20046;-75
2023/06/02 10:44:38;;;;;;;9.57;1.42;;;18.60;99.90;;;;;;4995304;28;20077;-75
2023/06/02 10:47:33;;;;;;;6.18;1.20;;;18.60;99.90;;;;;;4995067;28;20085;-75
2023/06/02 10:50:01;;;;;;;4.32;1.13;;;18.70;99.90;;;;;;4995324;28;20082;-75
2023/06/02 10:52:32;;;;;;;6.00;1.48;;;18.80;99.90;;;;;;4993953;28;20057;-74
2023/06/02 10:55:07;;;;;;;6.07;1.48;;;19.10;99.90;;;;;;4994070;28;20456;-75
2023/06/02 10:57:51;;;;;;;5.75;1.70;;;19.40;99.90;;;;;;4994033;28;20433;-76
2023/06/02 11:00:43;;;;;;;9.00;1.65;;;19.80;99.90;;;;;;4993750;28;20046;-75
2023/06/02 11:03:14;;;;;;;9.70;1.60;;;20.10;99.90;;;;;;4985828;28;20054;-75
2023/06/02 11:05:41;;;;;;;10.02;1.70;;;20.10;99.90;;;;;;4994837;28;20043;-76
2023/06/02 11:08:17;;;;;;;5.10;1.30;;;19.90;99.90;;;;;;4993796;28;20050;-76
2023/06/02 11:10:45;;;;;;;7.68;1.50;;;19.70;99.90;;;;;;4993373;28;20054;-75
2023/06/02 11:13:15;;;;;;;7.57;1.65;;;19.90;99.90;;;;;;4994693;28;20096;-74
2023/06/02 11:15:58;;;;;;;4.88;1.80;;;20.30;99.90;;;;;;4993811;28;20046;-76
2023/06/02 11:18:33;;;;;;;5.45;1.90;;;20.70;99.90;;;;;;4993594;28;20129;-75
2023/06/02 11:21:15;;;;;;;4.63;1.85;;;21.00;99.90;;;;;;4993311;28;20046;-75
2023/06/02 11:23:44;;;;;;;6.70;1.60;;;21.30;99.90;;;;;;4994894;28;20144;-76
2023/06/02 11:26:18;;;;;;;5.80;1.73;;;21.50;99.90;;;;;;4994465;28;20039;-75
2023/06/02 11:28:43;;;;;;;5.68;1.65;;;21.50;99.90;;;;;;4994470;28;20053;-75
2023/06/02 11:31:14;;;;;;;4.85;1.42;;;21.40;99.90;;;;;;4993112;28;20039;-75
2023/06/02 11:33:51;;;;;;;6.07;1.65;;;21.40;99.90;;;;;;4994626;28;20124;-74
2023/06/02 11:36:26;;;;;;;5.40;1.48;;;21.40;99.90;;;;;;4977044;28;20474;-75
2023/06/02 11:39:00;;;;;;;4.45;1.35;;;21.40;99.90;;;;;;4994841;28;20034;-75
2023/06/02 11:41:27;;;;;;;5.47;1.30;;;21.40;99.90;;;;;;4994427;28;20049;-77
2023/06/02 11:44:03;;;;;;;5.20;1.20;;;21.50;99.90;;;;;;4992909;28;20062;-76
2023/06/02 11:46:29;;;;;;;5.10;1.60;;;21.50;99.90;;;;;;4994213;28;20045;-74
2023/06/02 11:48:54;;;;;;;7.20;1.55;;;21.60;99.90;;;;;;4994290;28;20042;-76
2023/06/02 11:51:20;;;;;;;5.15;1.30;;;21.50;99.90;;;;;;4992710;28;20080;-75
2023/06/02 11:54:02;;;;;;;7.78;1.40;;;21.60;99.90;;;;;;4992746;28;20050;-75
2023/06/02 11:56:29;;;;;;;7.30;1.40;;;21.80;99.90;;;;;;4992713;28;20042;-75
2023/06/02 11:58:54;;;;;;;3.10;1.00;;;21.60;99.10;;;;;;4992942;28;20042;-76
2023/06/02 12:01:21;;;;;;;4.93;1.20;;;21.50;98.60;;;;;;4991910;28;20481;-75
2023/06/02 12:04:01;;;;;;;4.32;1.10;;;21.60;98.80;;;;;;4993954;28;20104;-75
2023/06/02 12:06:27;;;;;;;4.93;1.20;;;21.80;98.40;;;;;;4992465;28;20046;-75
2023/06/02 12:08:53;;;;;;;6.30;1.30;;;22.00;98.00;;;;;;4992582;28;20125;-75
2023/06/02 12:11:22;;;;;;;6.70;1.15;;;22.20;97.50;;;;;;4993799;28;20526;-75
2023/06/02 12:13:59;;;;;;;5.88;1.40;;;22.20;95.80;;;;;;4993030;28;20046;-75
2023/06/02 12:16:26;;;;;;;6.55;1.20;;;22.30;95.60;;;;;;4992731;28;20507;-74
2023/06/02 12:19:10;;;;;;;6.95;1.30;;;22.30;94.80;;;;;;4993369;28;20034;-75
2023/06/02 12:21:39;;;;;;;4.22;1.25;;;22.50;94.10;;;;;;4994154;28;20118;-75
2023/06/02 12:24:04;;;;;;;4.75;1.10;;;22.60;92.70;;;;;;4993740;28;20398;-75
2023/06/02 12:26:40;;;;;;;5.20;1.27;;;22.60;91.20;;;;;;4993890;28;20038;-75
2023/06/02 12:29:07;;;;;;;4.97;1.48;;;22.70;90.30;;;;;;4992889;28;20046;-75
2023/06/02 12:31:32;;;;;;;4.43;1.17;;;22.70;87.50;;;;;;4994199;28;20050;-75
2023/06/02 12:33:58;;;;;;;3.88;1.00;;;22.60;85.00;;;;;;4992665;28;20046;-75
2023/06/02 12:36:23;;;;;;;4.63;1.15;;;22.60;82.50;;;;;;4992868;28;20252;-75
2023/06/02 12:38:49;;;;;;;2.08;0.93;;;22.50;80.30;;;;;;4976629;28;20149;-74
2023/06/02 12:41:15;;;;;;;5.05;1.17;;;22.40;79.30;;;;;;4993784;28;20031;-75
2023/06/02 12:43:41;;;;;;;5.18;1.00;;;22.50;80.80;;;;;;4992523;28;20042;-75
2023/06/02 12:46:07;;;;;;;2.75;1.00;;;22.60;80.20;;;;;;4993642;28;20531;-76
2023/06/02 12:48:33;;;;;;;5.47;1.50;;;22.80;80.10;;;;;;4993886;28;20453;-75
2023/06/02 12:50:59;;;;;;;5.82;1.65;;;22.90;80.20;;;;;;4992177;28;20042;-74
2023/06/02 12:53:24;;;;;;;3.55;1.10;;;23.10;81.10;;;;;;4993469;28;20039;-76
2023/06/02 12:55:50;;;;;;;5.80;1.10;;;23.20;79.70;;;;;;4992108;28;20053;-75
2023/06/02 12:58:16;;;;;;;4.03;1.50;;;23.20;79.50;;;;;;4992090;28;20053;-75
2023/06/02 13:00:43;;;;;;;3.90;1.30;;;23.20;79.60;;;;;;4993650;28;20030;-75
2023/06/02 13:03:09;;;;;;;5.18;1.30;;;23.10;79.50;;;;;;4993784;28;20092;-76
2023/06/02 13:05:35;;;;;;;4.07;1.33;;;23.10;80.10;;;;;;4992334;28;20038;-76
2023/06/02 13:08:04;;;;;;;5.35;1.38;;;23.10;81.40;;;;;;4975906;28;20390;-75
2023/06/02 13:10:30;;;;;;;7.07;1.50;;;23.20;81.90;;;;;;4993626;28;20453;-76
2023/06/02 13:12:56;;;;;;;5.38;1.42;;;23.30;81.80;;;;;;4992644;28;20034;-76
2023/06/02 13:15:22;;;;;;;7.20;1.50;;;23.30;81.10;;;;;;4997362;28;20447;-76
2023/06/02 13:17:47;;;;;;;3.95;1.38;;;23.30;82.20;;;;;;4996994;28;20081;-74
2023/06/02 13:20:13;;;;;;;5.70;1.40;;;23.20;82.80;;;;;;4995621;28;20505;-76
2023/06/02 13:22:41;;;;;;;6.97;1.73;;;23.40;84.10;;;;;;4997099;28;20038;-74
2023/06/02 13:25:08;;;;;;;5.07;1.40;;;23.40;82.30;;;;;;4979654;28;20089;-75
2023/06/02 13:27:34;;;;;;;4.53;1.70;;;23.50;82.10;;;;;;4997154;28;20492;-75
2023/06/02 13:30:00;;;;;;;4.40;1.45;;;23.50;82.60;;;;;;4996724;28;20133;-76
2023/06/02 13:32:26;;;;;;;5.88;1.83;;;23.60;83.70;;;;;;4995547;28;20390;-76
2023/06/02 13:34:56;;;;;;;6.07;1.52;;;23.50;82.30;;;;;;4995385;28;20046;-74
2023/06/02 13:37:22;;;;;;;4.55;1.52;;;23.10;80.80;;;;;;4996725;28;20038;-76
2023/06/02 13:39:49;;;;;;;6.32;1.77;;;23.00;81.80;;;;;;4995270;28;20049;-76
2023/06/02 13:42:15;;;;;;;4.25;1.40;;;23.00;83.60;;;;;;4995050;28;20404;-77
2023/06/02 13:44:41;;;;;;;6.88;1.83;;;23.20;83.80;;;;;;4995200;28;20042;-75
2023/06/02 13:47:07;;;;;;;5.95;1.55;;;23.40;84.40;;;;;;4995103;28;20527;-75
2023/06/02 13:49:32;;;;;;;5.95;1.63;;;23.50;84.40;;;;;;4996706;28;20046;-75
2023/06/02 13:51:58;;;;;;;7.15;1.67;;;23.60;83.40;;;;;;4995011;28;20053;-77
2023/06/02 13:54:24;;;;;;;5.22;1.58;;;23.60;81.30;;;;;;4994984;28;20049;-74
2023/06/02 13:56:49;;;;;;;7.90;1.73;;;23.70;81.80;;;;;;4996322;28;20398;-75
2023/06/02 13:59:16;;;;;;;7.68;1.48;;;23.70;82.50;;;;;;4994945;28;20104;-75
2023/06/02 14:01:42;;;;;;;8.77;2.20;;;23.80;83.50;;;;;;4995018;28;20038;-75
2023/06/02 14:04:09;;;;;;;8.13;2.00;;;23.60;85.00;;;;;;4996778;28;20042;-74
2023/06/02 14:06:35;;;;;;;5.38;1.90;;;23.50;86.50;;;;;;4994725;28;20054;-74
2023/06/02 14:09:06;;;;;;;8.48;2.00;;;23.30;87.10;;;;;;4996064;28;20038;-75
2023/06/02 14:11:36;;;;;;;5.07;1.85;;;23.10;88.10;;;;;;4994779;28;20371;-75
2023/06/02 14:14:03;;;;;;;8.68;2.08;;;22.90;88.40;;;;;;4996495;28;20417;-75
2023/06/02 14:16:28;;;;;;;7.25;2.30;;;22.80;89.00;;;;;;4994377;28;20053;-76
2023/06/02 14:18:55;;;;;;;11.90;2.58;;;22.60;89.90;;;;;;4996178;28;20038;-75
2023/06/02 14:21:20;;;;;;;6.38;2.42;;;22.40;90.80;;;;;;4994855;28;20038;-75
2023/06/02 14:23:47;;;;;;;8.18;2.75;;;22.20;91.60;;;;;;4995573;28;20038;-74
2023/06/02 14:26:13;;;;;;;7.15;2.40;;;22.10;92.40;;;;;;4995788;28;20078;-74
2023/06/02 14:28:38;;;;;;;8.38;2.38;;;22.30;93.20;;;;;;4995872;28;20070;-75
2023/06/02 14:31:04;;;;;;;7.38;2.47;;;22.60;93.60;;;;;;4994314;28;20046;-77
2023/06/02 14:33:30;;;;;;;8.63;2.45;;;22.70;93.80;;;;;;4995744;28;20054;-75
2023/06/02 14:35:55;;;;;;;11.52;2.60;;;22.60;93.50;;;;;;4994323;28;20100;-74
2023/06/02 14:38:21;;;;;;;8.13;2.22;;;22.30;93.30;;;;;;4978104;28;20501;-75
2023/06/02 14:40:47;;;;;;;8.88;2.97;;;22.20;93.90;;;;;;4995359;28;20034;-74
2023/06/02 14:43:12;;;;;;;14.82;3.10;;;22.10;94.70;;;;;;4977860;28;20081;-74
2023/06/02 14:45:38;;;;;;;10.18;2.83;;;22.00;95.40;;;;;;4994054;28;20045;-76
2023/06/02 14:48:04;;;;;;;7.15;2.75;;;22.10;96.30;;;;;;4994277;28;20043;-75
2023/06/02 14:50:31;;;;;;;9.57;2.92;;;22.00;97.50;;;;;;4977928;28;20042;-75
2023/06/02 14:52:57;;;;;;;9.48;3.10;;;22.00;98.00;;;;;;4995239;28;20077;-74
2023/06/02 14:55:23;;;;;;;9.50;2.60;;;22.00;98.10;;;;;;4995525;28;20038;-75
2023/06/02 14:57:48;;;;;;;7.38;3.40;;;21.80;98.30;;;;;;4995076;28;20185;-75
2023/06/02 15:00:15;;;;;;;8.77;3.33;;;21.60;98.70;;;;;;4993759;28;20070;-74
2023/06/02 15:02:40;;;;;;;8.18;3.22;;;21.30;99.00;;;;;;4993762;28;20042;-74
2023/06/02 15:05:06;;;;;;;8.98;2.92;;;21.20;99.20;;;;;;4993901;28;20049;-76
2023/06/02 15:07:32;;;;;;;9.95;2.97;;;21.40;99.90;;;;;;4993836;28;20042;-74
2023/06/02 15:09:58;;;;;;;9.77;3.22;;;21.80;99.90;;;;;;4993540;28;20064;-75
2023/06/02 15:12:24;;;;;;;8.32;3.45;;;21.90;99.90;;;;;;4995059;28;20042;-74
2023/06/02 15:14:49;;;;;;;9.73;3.28;;;21.80;99.90;;;;;;4993774;28;20053;-73
2023/06/02 15:17:15;;;;;;;8.45;3.38;;;21.60;99.90;;;;;;4993522;28;20061;-75
2023/06/02 15:19:41;;;;;;;11.90;3.80;;;21.40;99.90;;;;;;4993831;28;20042;-73
2023/06/02 15:22:06;;;;;;;8.75;4.03;;;21.20;99.90;;;;;;4993502;28;20137;-75
2023/06/02 15:24:32;;;;;;;13.02;5.55;;;21.00;99.90;;;;;;4994361;28;20050;-74
2023/06/02 15:26:58;;;;;;;12.52;6.50;;;20.80;99.90;;;;;;4993124;28;20176;-74
2023/06/02 15:29:23;;;;;;;12.38;6.72;;;20.70;99.90;;;;;;4993115;28;20112;-74
2023/06/02 15:31:49;;;;;;;9.43;3.63;;;20.70;99.90;;;;;;4993118;28;20038;-75
2023/06/02 15:34:17;;;;;;;7.47;3.60;;;20.70;99.90;;;;;;4994407;28;20374;-74
2023/06/02 15:36:43;;;;;;;9.88;3.97;;;20.70;99.90;;;;;;4993595;28;20050;-75
2023/06/02 15:39:10;;;;;;;9.18;3.70;;;20.70;99.90;;;;;;4993043;28;20046;-75
2023/06/02 15:41:38;;;;;;;11.80;3.33;;;20.80;99.90;;;;;;4993004;28;20061;-74
2023/06/02 15:44:05;;;;;;;9.88;3.50;;;20.70;99.90;;;;;;4994461;28;20074;-74
2023/06/02 15:46:30;;;;;;;9.13;3.90;;;20.80;99.90;;;;;;4992796;28;20100;-75